KSUU/SUU METAR and TAF weather

Enter ICAO airport designator
Station Type Date Time Source
KSUU METAR 2020/08/05 23:58 UTC NOAA

KSUU 052358Z AUTO 21023KT 10SM CLR 25/13 A2984 RMK AO2 PK WND 22027/43 SLP111 T02510133 10272 20205 57013 $


Station Type Date Time Source
KSUU Decoded METAR 2020/08/05 23:58 UTC NOAA

Fairfield / Travis Air Force Base, CA, United States (KSUU) 38-16N 121-57W 22M
Aug 05, 2020 - 07:58 PM EDT / 2020.08.05 2358 UTC
Wind: from the SSW (210 degrees) at 26 MPH (23 KT):0
Visibility: 10 mile(s):0
Sky conditions: clear
Temperature: 77.2 F (25.1 C)
Dew Point: 55.9 F (13.3 C)
Relative Humidity: 47%
Pressure (altimeter): 29.84 in. Hg (1010 hPa)
Pressure tendency: 0.04 inches (1.3 hPa) lower than three hours ago
ob: KSUU 052358Z AUTO 21023KT 10SM CLR 25/13 A2984 RMK AO2 PK WND 22027/43 SLP111 T02510133 10272 20205 57013
cycle: 0

Station Type Date Time Source
KSUU TAF 2020/08/05 19:06 UTC NOAA

TAF TAF KSUU 051900Z 0519/0701 23015G25KT 9999 SKC QNH2982INS
BECMG 0609/0610 23015G25KT 9999 BKN010 QNH2980INS
BECMG 0616/0617 23012G18KT 9999 SKC QNH2980INS TX26/0523Z TN14/0612Z

Example: see airport list